createdAt,value
2018-11-23T00:00:25.441Z,5.90
2018-11-23T00:02:57.096Z,5.95
2018-11-23T00:05:25.728Z,5.82
2018-11-23T00:07:56.436Z,5.78
2018-11-23T00:10:27.531Z,5.74
2018-11-23T00:12:56.142Z,5.77
2018-11-23T00:15:28.056Z,5.78
2018-11-23T00:17:58.657Z,5.75
2018-11-23T00:20:29.045Z,5.79
2018-11-23T00:22:57.631Z,5.86
2018-11-23T00:25:27.021Z,5.91
2018-11-23T00:27:56.250Z,5.81
2018-11-23T00:30:30.551Z,5.74
2018-11-23T00:32:59.280Z,5.67
2018-11-23T00:35:29.834Z,5.66
2018-11-23T00:37:58.263Z,5.66
2018-11-23T00:40:30.205Z,5.75
2018-11-23T00:43:01.338Z,5.63
2018-11-23T00:45:30.484Z,5.66
2018-11-23T00:48:00.880Z,5.60
2018-11-23T00:50:29.720Z,5.81
2018-11-23T00:52:59.443Z,5.71
2018-11-23T00:55:32.089Z,5.75
2018-11-23T00:58:00.468Z,5.75
2018-11-23T01:00:31.153Z,5.69
2018-11-23T01:03:00.261Z,5.69
2018-11-23T01:05:28.768Z,5.77
2018-11-23T01:07:57.218Z,5.66
2018-11-23T01:10:27.155Z,5.63
2018-11-23T01:12:56.445Z,5.69
2018-11-23T01:15:25.170Z,5.78
2018-11-23T01:18:01.224Z,5.82
2018-11-23T01:20:29.885Z,5.84
2018-11-23T01:23:01.246Z,5.82
2018-11-23T01:25:30.411Z,5.83
2018-11-23T01:27:59.434Z,5.82
2018-11-23T01:30:30.987Z,5.85
2018-11-23T01:32:59.710Z,5.97
2018-11-23T01:35:28.088Z,5.86
2018-11-23T01:37:57.234Z,5.92
2018-11-23T01:40:27.113Z,5.92
2018-11-23T01:42:56.044Z,5.80
2018-11-23T01:45:24.590Z,5.77
2018-11-23T01:47:55.103Z,5.72
2018-11-23T01:50:26.975Z,5.72
2018-11-23T01:52:56.545Z,5.66
2018-11-23T01:55:25.855Z,5.53
2018-11-23T01:57:55.924Z,5.53
2018-11-23T02:00:26.260Z,5.53
2018-11-23T02:02:55.462Z,5.55
2018-11-23T02:05:24.098Z,5.59
2018-11-23T02:07:52.561Z,5.56
2018-11-23T02:10:25.437Z,5.70
2018-11-23T02:12:54.133Z,5.70
2018-11-23T02:15:23.661Z,5.61
2018-11-23T02:17:52.500Z,5.56
2018-11-23T02:20:22.017Z,5.55
2018-11-23T02:22:50.325Z,5.52
2018-11-23T02:25:19.097Z,5.48
2018-11-23T02:27:47.395Z,5.36
2018-11-23T02:30:18.606Z,5.36
2018-11-23T02:32:47.233Z,5.42
2018-11-23T02:35:16.214Z,5.46
2018-11-23T02:37:44.495Z,5.38
2018-11-23T02:40:14.374Z,5.34
2018-11-23T02:42:42.799Z,5.27
2018-11-23T02:45:16.516Z,5.29
2018-11-23T02:47:46.604Z,5.35
2018-11-23T02:50:23.085Z,5.33
2018-11-23T02:52:52.055Z,5.19
2018-11-23T02:55:20.929Z,5.23
2018-11-23T02:57:51.860Z,5.37
2018-11-23T03:00:26.094Z,5.31
2018-11-23T03:02:55.634Z,5.24
2018-11-23T03:05:24.476Z,5.15
2018-11-23T03:07:55.172Z,5.16
2018-11-23T03:10:24.105Z,5.07
2018-11-23T03:12:52.576Z,5.11
2018-11-23T03:15:22.078Z,5.01
2018-11-23T03:17:51.356Z,5.05
2018-11-23T03:20:20.839Z,5.13
2018-11-23T03:22:49.651Z,5.07
2018-11-23T03:25:17.992Z,5.01
2018-11-23T03:27:46.697Z,4.98
2018-11-23T03:30:20.357Z,5.01
2018-11-23T03:32:50.128Z,4.88
2018-11-23T03:35:19.544Z,4.77
2018-11-23T03:37:48.460Z,4.80
2018-11-23T03:40:16.756Z,4.97
2018-11-23T03:42:45.485Z,5.00
2018-11-23T03:45:16.338Z,5.10
2018-11-23T03:47:46.416Z,5.19
2018-11-23T03:50:18.116Z,5.20
2018-11-23T03:52:47.869Z,5.12
2018-11-23T03:55:22.895Z,5.07
2018-11-23T03:57:52.432Z,5.07
2018-11-23T04:00:22.646Z,5.16
2018-11-23T04:02:52.404Z,5.01
2018-11-23T04:05:21.065Z,5.13
2018-11-23T04:07:49.309Z,5.07
2018-11-23T04:10:18.471Z,5.10
2018-11-23T04:12:47.298Z,5.19
2018-11-23T04:15:16.767Z,5.05
2018-11-23T04:17:45.579Z,5.13
2018-11-23T04:20:15.662Z,5.21
2018-11-23T04:22:44.432Z,5.17
2018-11-23T04:25:13.633Z,5.20
2018-11-23T04:27:42.913Z,5.30
2018-11-23T04:30:14.796Z,5.25
2018-11-23T04:32:43.325Z,5.20
2018-11-23T04:35:13.729Z,5.27
2018-11-23T04:37:42.679Z,5.30
2018-11-23T04:40:12.126Z,5.15
2018-11-23T04:42:43.374Z,5.17
2018-11-23T04:45:14.818Z,5.19
2018-11-23T04:47:43.455Z,5.41
2018-11-23T04:50:13.045Z,5.47
2018-11-23T04:52:42.390Z,5.51
2018-11-23T04:55:13.703Z,5.60
2018-11-23T04:57:42.718Z,5.39
2018-11-23T05:00:16.488Z,5.46
2018-11-23T05:02:45.782Z,5.55
2018-11-23T05:05:14.975Z,5.35
2018-11-23T05:07:45.134Z,5.24
2018-11-23T05:10:22.716Z,4.83
2018-11-23T05:12:52.691Z,5.20
2018-11-23T05:15:21.476Z,5.36
2018-11-23T05:17:49.926Z,5.53
2018-11-23T05:20:18.360Z,5.50
2018-11-23T05:22:47.025Z,5.60
2018-11-23T05:25:16.362Z,5.68
2018-11-23T05:27:45.326Z,5.63
2018-11-23T05:30:18.769Z,5.63
2018-11-23T05:32:47.639Z,5.67
2018-11-23T05:35:17.201Z,5.76
2018-11-23T05:37:45.595Z,5.73
2018-11-23T05:40:22.609Z,5.72
2018-11-23T05:42:52.676Z,5.71
2018-11-23T05:45:26.705Z,5.68
2018-11-23T05:48:19.012Z,5.69
2018-11-23T05:50:49.267Z,5.76
2018-11-23T05:53:18.801Z,5.66
2018-11-23T05:55:49.954Z,5.65
2018-11-23T05:58:26.452Z,5.61
2018-11-23T06:00:57.517Z,5.48
2018-11-23T06:03:26.330Z,5.52
2018-11-23T06:05:56.118Z,5.51
2018-11-23T06:08:25.404Z,5.61
2018-11-23T06:10:55.106Z,5.50
2018-11-23T06:13:24.236Z,5.51
2018-11-23T06:15:54.194Z,5.47
2018-11-23T06:18:23.686Z,5.30
2018-11-23T06:20:55.037Z,5.33
2018-11-23T06:23:24.141Z,5.39
2018-11-23T06:26:01.390Z,5.42
2018-11-23T06:28:35.622Z,5.52
2018-11-23T06:33:49.027Z,5.29
2018-11-23T06:36:18.482Z,5.38
2018-11-23T06:38:47.415Z,5.31
2018-11-23T06:41:33.821Z,5.35
2018-11-23T06:44:06.820Z,5.39
2018-11-23T06:46:37.667Z,5.41
2018-11-23T06:51:47.836Z,5.42
2018-11-23T06:54:21.351Z,5.31
2018-11-23T06:56:49.795Z,5.18
2018-11-23T06:59:19.088Z,4.93
2018-11-23T07:01:48.215Z,5.20
2018-11-23T07:04:18.073Z,5.40
2018-11-23T07:06:49.034Z,5.49
2018-11-23T07:09:19.464Z,5.07
2018-11-23T07:11:51.735Z,5.36
2018-11-23T07:14:28.223Z,5.36
2018-11-23T07:16:59.203Z,5.42
2018-11-23T07:19:31.321Z,5.40
2018-11-23T07:25:01.004Z,5.37
2018-11-23T07:27:42.947Z,5.39
2018-11-23T07:30:18.450Z,5.49
2018-11-23T07:32:51.354Z,5.49
2018-11-23T07:35:24.719Z,5.46
2018-11-23T07:37:54.304Z,5.59
2018-11-23T07:41:03.840Z,5.58
2018-11-23T07:43:33.916Z,5.55
2018-11-23T07:46:04.634Z,5.55
2018-11-23T07:48:33.771Z,5.73
2018-11-23T07:51:20.291Z,5.82
2018-11-23T07:53:51.019Z,5.76
2018-11-23T07:56:21.172Z,5.43
2018-11-23T07:58:51.459Z,5.77
2018-11-23T08:01:25.292Z,5.85
2018-11-23T08:04:01.593Z,5.87
2018-11-23T08:06:34.179Z,6.07
2018-11-23T08:09:04.031Z,6.17
2018-11-23T08:11:35.395Z,6.33
2018-11-23T08:14:09.232Z,6.26
2018-11-23T08:16:40.751Z,6.37
2018-11-23T08:19:09.649Z,6.24
2018-11-23T08:21:39.537Z,6.35
2018-11-23T08:24:09.905Z,6.34
2018-11-23T08:26:42.010Z,6.42
2018-11-23T08:31:12.708Z,6.62
2018-11-23T08:33:41.792Z,6.57
2018-11-23T08:36:11.384Z,6.77
2018-11-23T08:38:41.589Z,6.77
2018-11-23T08:41:10.651Z,6.83
2018-11-23T08:43:40.527Z,6.95
2018-11-23T08:46:09.721Z,6.82
2018-11-23T08:48:39.238Z,6.98
2018-11-23T08:51:10.185Z,7.13
2018-11-23T08:53:44.887Z,7.29
2018-11-23T08:56:17.171Z,7.50
2018-11-23T08:58:47.571Z,8.19
2018-11-23T09:01:19.822Z,9.88
2018-11-23T09:03:55.855Z,11.48
2018-11-23T09:06:24.917Z,12.28
2018-11-23T09:08:56.523Z,13.29
2018-11-23T09:11:34.433Z,14.35
2018-11-23T09:16:47.118Z,13.78
2018-11-23T09:19:32.463Z,14.18
2018-11-23T09:22:05.013Z,13.93
2018-11-23T09:26:18.097Z,14.54
2018-11-23T09:28:48.689Z,14.89
2018-11-23T09:31:23.091Z,14.64
2018-11-23T09:33:53.019Z,15.14
2018-11-23T09:36:21.501Z,13.84
2018-11-23T09:39:00.746Z,14.59
2018-11-23T09:41:29.737Z,14.45
2018-11-23T09:44:01.991Z,15.34
2018-11-23T09:46:33.285Z,15.95
2018-11-23T09:49:04.197Z,15.99
2018-11-23T09:51:34.698Z,16.21
2018-11-23T09:55:26.471Z,16.98
2018-11-23T09:57:55.756Z,16.70
2018-11-23T10:00:29.813Z,16.84
2018-11-23T10:03:04.689Z,16.33
2018-11-23T10:08:08.786Z,16.79
2018-11-23T10:10:39.116Z,17.19
2018-11-23T10:13:07.387Z,17.07
2018-11-23T10:15:37.996Z,17.39
2018-11-23T10:18:06.742Z,17.15
2018-11-23T10:20:37.551Z,16.86
2018-11-23T10:23:07.122Z,14.52
2018-11-23T10:25:38.798Z,14.36
2018-11-23T10:28:08.213Z,13.46
2018-11-23T10:30:43.585Z,13.30
2018-11-23T10:33:15.023Z,13.22
2018-11-23T10:35:44.121Z,13.11
2018-11-23T10:38:15.857Z,12.96
2018-11-23T10:43:30.649Z,12.78
2018-11-23T10:46:00.561Z,12.64
2018-11-23T10:48:35.726Z,12.82
2018-11-23T10:51:04.891Z,13.53
2018-11-23T10:56:10.484Z,14.46
2018-11-23T11:00:34.911Z,13.70
2018-11-23T11:03:08.524Z,14.05
2018-11-23T11:06:42.946Z,15.49
2018-11-23T11:09:11.860Z,16.39
2018-11-23T11:11:42.382Z,16.56
2018-11-23T11:14:11.874Z,16.53
2018-11-23T11:16:41.082Z,16.96
2018-11-23T11:19:11.683Z,17.53
2018-11-23T11:21:42.806Z,17.53
2018-11-23T11:24:11.957Z,17.58
2018-11-23T11:26:45.410Z,17.77
2018-11-23T11:30:14.356Z,17.71
2018-11-23T11:32:45.464Z,17.75
2018-11-23T11:39:22.792Z,17.99
2018-11-23T11:42:03.877Z,17.81
2018-11-23T11:44:35.121Z,17.26
2018-11-23T11:47:14.321Z,17.34
2018-11-23T11:49:44.708Z,17.21
2018-11-23T11:52:15.262Z,17.41
2018-11-23T11:54:44.364Z,17.19
2018-11-23T11:57:22.140Z,17.21
2018-11-23T11:59:51.928Z,16.85
2018-11-23T12:02:22.606Z,17.04
2018-11-23T12:04:52.310Z,17.45
2018-11-23T12:07:28.962Z,17.52
2018-11-23T12:09:58.460Z,17.43
2018-11-23T12:12:27.583Z,17.34
2018-11-23T12:14:59.879Z,16.87
2018-11-23T12:17:36.104Z,16.96
2018-11-23T12:20:06.987Z,17.01
2018-11-23T12:22:37.448Z,16.66
2018-11-23T12:27:46.025Z,16.70
2018-11-23T12:30:18.440Z,16.54
2018-11-23T12:32:49.977Z,16.62
2018-11-23T12:35:19.859Z,16.41
2018-11-23T12:37:51.413Z,16.14
2018-11-23T12:40:25.086Z,16.36
2018-11-23T12:42:56.138Z,16.22
2018-11-23T12:45:28.364Z,16.17
2018-11-23T12:48:06.714Z,16.30
2018-11-23T12:52:15.987Z,16.02
2018-11-23T12:54:46.049Z,16.27
2018-11-23T12:57:30.952Z,16.58
2018-11-23T13:02:57.180Z,17.02
2018-11-23T13:05:29.531Z,16.99
2018-11-23T13:08:01.560Z,16.93
2018-11-23T13:10:31.314Z,16.92
2018-11-23T13:13:09.055Z,16.88
2018-11-23T13:15:39.349Z,16.85
2018-11-23T13:18:11.277Z,16.82
2018-11-23T13:21:00.113Z,16.78
2018-11-23T13:23:31.184Z,16.73
2018-11-23T13:26:05.579Z,16.71
2018-11-23T13:28:40.022Z,16.42
2018-11-23T13:31:12.701Z,16.15
2018-11-23T13:33:41.545Z,15.92
2018-11-23T13:36:16.315Z,15.60
2018-11-23T13:38:47.597Z,15.41
2018-11-23T13:41:19.765Z,13.63
2018-11-23T13:43:51.661Z,15.30
2018-11-23T13:46:22.605Z,15.03
2018-11-23T13:48:54.531Z,15.01
2018-11-23T13:51:27.420Z,14.83
2018-11-23T13:56:45.608Z,14.64
2018-11-23T13:59:18.896Z,14.57
2018-11-23T14:01:50.446Z,14.36
2018-11-23T14:04:21.263Z,14.27
2018-11-23T14:06:57.636Z,14.24
2018-11-23T14:09:37.718Z,14.26
2018-11-23T14:12:08.584Z,14.36
2018-11-23T14:14:39.835Z,14.38
2018-11-23T14:17:20.361Z,14.24
2018-11-23T14:19:53.009Z,14.16
2018-11-23T14:22:23.631Z,14.12
2018-11-23T14:24:55.572Z,14.14
2018-11-23T14:27:26.580Z,14.05
2018-11-23T14:30:05.859Z,14.00
2018-11-23T14:32:36.343Z,13.85
2018-11-23T14:36:44.428Z,13.74
2018-11-23T14:39:15.150Z,13.78
2018-11-23T14:41:49.398Z,13.76
2018-11-23T14:44:28.998Z,13.80
2018-11-23T14:46:59.527Z,13.75
2018-11-23T14:49:29.487Z,13.76
2018-11-23T14:51:59.366Z,13.71
2018-11-23T14:54:28.268Z,13.64
2018-11-23T14:56:58.808Z,13.71
2018-11-23T14:59:28.154Z,13.68
2018-11-23T15:01:58.260Z,13.23
2018-11-23T15:06:41.796Z,13.63
2018-11-23T15:09:14.031Z,13.66
2018-11-23T15:11:47.026Z,13.68
2018-11-23T15:14:33.332Z,13.69
2018-11-23T15:17:09.119Z,13.69
2018-11-23T15:19:40.657Z,13.69
2018-11-23T15:22:11.353Z,13.64
2018-11-23T15:24:41.741Z,13.49
2018-11-23T15:27:10.566Z,13.44
2018-11-23T15:29:42.261Z,13.46
2018-11-23T15:32:12.776Z,13.45
2018-11-23T15:34:43.558Z,13.41
2018-11-23T15:37:14.416Z,13.39
2018-11-23T15:39:46.719Z,13.38
2018-11-23T15:42:16.826Z,13.32
2018-11-23T15:44:58.571Z,13.23
2018-11-23T15:47:29.176Z,13.21
2018-11-23T15:50:00.858Z,13.17
2018-11-23T15:52:41.508Z,13.11
2018-11-23T15:55:17.536Z,13.11
2018-11-23T15:58:04.402Z,13.08
2018-11-23T16:00:39.823Z,13.06
2018-11-23T16:03:37.795Z,12.98
2018-11-23T16:06:13.230Z,12.91
2018-11-23T16:08:45.226Z,12.84
2018-11-23T16:11:16.806Z,12.80
2018-11-23T16:13:47.776Z,12.81
2018-11-23T16:16:19.634Z,12.78
2018-11-23T16:18:49.138Z,12.70
2018-11-23T16:21:20.935Z,12.65
2018-11-23T16:23:56.899Z,12.62
2018-11-23T16:26:28.159Z,12.60
2018-11-23T16:29:07.427Z,12.58
2018-11-23T16:31:40.119Z,12.54
2018-11-23T16:34:13.803Z,12.51
2018-11-23T16:36:45.614Z,12.48
2018-11-23T16:39:15.594Z,12.43
2018-11-23T16:41:46.558Z,12.38
2018-11-23T16:44:21.429Z,12.33
2018-11-23T16:46:56.611Z,11.86
2018-11-23T16:49:31.109Z,12.22
2018-11-23T16:52:06.923Z,12.14
2018-11-23T16:54:46.356Z,12.10
2018-11-23T16:57:16.445Z,12.02
2018-11-23T16:59:58.392Z,12.04
2018-11-23T17:02:34.949Z,12.02
2018-11-23T17:05:12.288Z,11.94
2018-11-23T17:07:45.708Z,11.58
2018-11-23T17:10:18.536Z,11.67
2018-11-23T17:15:39.042Z,11.43
2018-11-23T17:18:28.997Z,11.44
2018-11-23T17:21:07.967Z,11.43
2018-11-23T17:23:37.686Z,11.37
2018-11-23T17:29:04.042Z,11.28
2018-11-23T17:31:36.775Z,11.23
2018-11-23T17:34:12.682Z,11.22
2018-11-23T17:39:47.213Z,11.10
2018-11-23T17:42:23.728Z,11.04
2018-11-23T17:44:55.693Z,10.96
2018-11-23T17:47:32.429Z,10.94
2018-11-23T17:50:06.658Z,10.94
2018-11-23T17:52:42.702Z,10.88
2018-11-23T17:55:14.791Z,10.79
2018-11-23T17:57:51.918Z,10.70
2018-11-23T18:00:28.227Z,10.57
2018-11-23T18:03:02.784Z,10.50
2018-11-23T18:05:35.979Z,10.42
2018-11-23T18:08:14.858Z,10.28
2018-11-23T18:10:51.813Z,10.10
2018-11-23T18:13:29.012Z,10.10
2018-11-23T18:18:45.905Z,10.17
2018-11-23T18:21:39.628Z,10.13
2018-11-23T18:27:01.573Z,10.02
2018-11-23T18:29:35.382Z,10.02
2018-11-23T18:32:09.005Z,10.00
2018-11-23T18:34:48.230Z,9.97
2018-11-23T18:37:26.749Z,9.90
2018-11-23T18:39:58.383Z,9.95
2018-11-23T18:42:35.756Z,9.95
2018-11-23T18:45:17.148Z,9.92
2018-11-23T18:47:47.916Z,9.92
2018-11-23T18:51:48.199Z,7.54
2018-11-23T18:54:22.069Z,9.77
2018-11-23T18:56:53.958Z,9.76
2018-11-23T18:59:40.423Z,9.73
2018-11-23T19:02:18.795Z,9.71
2018-11-23T19:04:52.694Z,9.68
2018-11-23T19:07:25.886Z,9.67
2018-11-23T19:09:57.174Z,9.64
2018-11-23T19:12:28.953Z,9.55
2018-11-23T19:15:00.719Z,9.47
2018-11-23T19:17:31.604Z,9.42
2018-11-23T19:20:02.718Z,9.46
2018-11-23T19:22:56.489Z,9.45
2018-11-23T19:25:27.623Z,9.43
2018-11-23T19:30:40.842Z,9.32
2018-11-23T19:33:11.984Z,9.28
2018-11-23T19:38:29.432Z,8.90
2018-11-23T19:43:56.351Z,9.19
2018-11-23T19:46:26.727Z,9.21
2018-11-23T19:48:56.055Z,9.18
2018-11-23T19:51:28.191Z,9.11
2018-11-23T19:53:58.712Z,9.13
2018-11-23T19:56:29.432Z,9.15
2018-11-23T19:58:57.682Z,9.13
2018-11-23T20:04:13.189Z,8.86
2018-11-23T20:06:45.631Z,8.73
2018-11-23T20:09:20.640Z,8.69
2018-11-23T20:11:58.143Z,8.63
2018-11-23T20:14:34.981Z,8.66
2018-11-23T20:17:29.403Z,8.66
2018-11-23T20:19:59.853Z,8.50
2018-11-23T20:22:31.586Z,8.47
2018-11-23T20:25:04.051Z,8.42
2018-11-23T20:27:35.237Z,8.34
2018-11-23T20:32:31.233Z,8.35
2018-11-23T20:35:03.711Z,8.38
2018-11-23T20:37:34.346Z,8.42
2018-11-23T20:40:12.162Z,8.45
2018-11-23T20:42:41.752Z,8.40
2018-11-23T20:45:17.889Z,8.35
2018-11-23T20:47:46.781Z,8.31
2018-11-23T20:50:18.413Z,8.32
2018-11-23T20:52:47.313Z,8.28
2018-11-23T20:55:19.751Z,8.31
2018-11-23T20:57:49.142Z,8.27
2018-11-23T21:00:19.520Z,8.21
2018-11-23T21:02:49.277Z,8.17
2018-11-23T21:05:18.576Z,8.16
2018-11-23T21:07:48.959Z,8.13
2018-11-23T21:10:23.741Z,8.18
2018-11-23T21:12:52.662Z,8.25
2018-11-23T21:15:23.263Z,8.21
2018-11-23T21:17:51.893Z,8.21
2018-11-23T21:20:20.612Z,8.29
2018-11-23T21:22:49.317Z,8.38
2018-11-23T21:25:18.007Z,8.37
2018-11-23T21:27:46.605Z,8.37
2018-11-23T21:30:17.063Z,8.37
2018-11-23T21:32:47.387Z,8.36
2018-11-23T21:35:16.609Z,8.27
2018-11-23T21:37:47.024Z,8.29
2018-11-23T21:40:15.962Z,8.30
2018-11-23T21:42:47.104Z,8.30
2018-11-23T21:45:21.623Z,8.40
2018-11-23T21:47:51.847Z,8.38
2018-11-23T21:50:25.657Z,8.27
2018-11-23T21:52:50.143Z,8.20
2018-11-23T21:55:20.610Z,8.13
2018-11-23T21:57:48.997Z,8.11
2018-11-23T22:00:17.676Z,8.09
2018-11-23T22:02:46.544Z,8.07
2018-11-23T22:05:15.333Z,8.01
2018-11-23T22:07:45.617Z,7.87
2018-11-23T22:10:20.405Z,7.75
2018-11-23T22:12:55.967Z,7.68
2018-11-23T22:15:29.838Z,7.68
2018-11-23T22:18:05.849Z,7.63
2018-11-23T22:20:48.796Z,7.59
2018-11-23T22:23:22.420Z,7.51
2018-11-23T22:25:52.471Z,7.45
2018-11-23T22:28:24.280Z,7.43
2018-11-23T22:30:53.456Z,7.40
2018-11-23T22:33:23.553Z,7.44
2018-11-23T22:35:53.516Z,7.42
2018-11-23T22:38:24.507Z,7.39
2018-11-23T22:40:56.761Z,7.40
2018-11-23T22:43:27.210Z,7.39
2018-11-23T22:46:00.695Z,7.39
2018-11-23T22:48:40.716Z,7.42
2018-11-23T22:51:11.948Z,7.42
2018-11-23T22:53:42.249Z,7.40
2018-11-23T22:56:11.467Z,7.40
2018-11-23T22:58:40.247Z,7.32
2018-11-23T23:01:12.898Z,7.30
2018-11-23T23:05:14.311Z,7.15
2018-11-23T23:07:48.180Z,7.10
2018-11-23T23:10:18.720Z,7.16
2018-11-23T23:12:53.566Z,7.23
2018-11-23T23:15:24.458Z,7.16
2018-11-23T23:17:55.385Z,7.12
2018-11-23T23:20:25.185Z,7.05
2018-11-23T23:22:56.072Z,7.07
2018-11-23T23:25:30.372Z,7.05
2018-11-23T23:28:04.288Z,7.06
2018-11-23T23:30:34.548Z,7.02
2018-11-23T23:33:05.099Z,7.00
2018-11-23T23:35:35.441Z,7.01
2018-11-23T23:38:04.938Z,7.03
2018-11-23T23:40:33.702Z,7.05
2018-11-23T23:43:02.058Z,7.04
2018-11-23T23:45:31.735Z,7.03
2018-11-23T23:48:01.495Z,7.02
2018-11-23T23:50:33.472Z,6.98
2018-11-23T23:53:03.513Z,6.96
2018-11-23T23:55:33.221Z,6.97
2018-11-23T23:58:03.706Z,6.93
